Time;durP1;ratioP1;P1;durP2;ratioP2;P2;SDS_P1;SDS_P2;PMS_P1;PMS_P2;Temp;Humidity;BMP_temperature;BMP_pressure;BME280_temperature;BME280_humidity;BME280_pressure;Samples;Min_cycle;Max_cycle;Signal;HPM_P1;HPM_P2
2023/02/27 00:02:22;;;;;;;3.67;2.30;;;5.20;42.70;;;;;;5005614;28;20073;-76
2023/02/27 00:04:49;;;;;;;5.25;2.63;;;5.10;42.70;;;;;;5023998;28;20075;-77
2023/02/27 00:07:15;;;;;;;3.80;2.72;;;5.10;42.70;;;;;;5020629;28;20644;-77
2023/02/27 00:09:41;;;;;;;4.07;2.35;;;5.10;42.80;;;;;;5022520;28;20138;-78
2023/02/27 00:12:09;;;;;;;3.10;2.25;;;5.00;42.70;;;;;;5038308;28;20120;-78
2023/02/27 00:14:35;;;;;;;3.95;3.20;;;5.00;42.70;;;;;;5020447;28;20653;-75
2023/02/27 00:17:01;;;;;;;3.83;2.72;;;5.00;42.80;;;;;;5023943;28;20051;-75
2023/02/27 00:19:27;;;;;;;4.95;2.58;;;4.90;42.70;;;;;;5018778;28;20534;-75
2023/02/27 00:21:53;;;;;;;5.95;2.60;;;4.90;42.70;;;;;;5022959;28;20033;-74
2023/02/27 00:24:18;;;;;;;5.45;2.47;;;4.90;42.80;;;;;;5022361;28;20164;-73
2023/02/27 00:26:44;;;;;;;4.75;2.72;;;4.80;42.70;;;;;;5021615;28;20037;-74
2023/02/27 00:29:10;;;;;;;5.85;3.00;;;4.80;42.80;;;;;;5020603;28;20025;-74
2023/02/27 00:31:36;;;;;;;4.03;2.58;;;4.80;43.20;;;;;;5023617;28;20155;-74
2023/02/27 00:34:03;;;;;;;3.92;2.90;;;4.80;42.90;;;;;;5036559;28;20132;-74
2023/02/27 00:36:29;;;;;;;7.50;2.60;;;4.70;42.80;;;;;;5023273;28;20080;-74
2023/02/27 00:38:56;;;;;;;4.93;3.10;;;4.70;42.80;;;;;;5037784;28;20099;-75
2023/02/27 00:41:24;;;;;;;3.53;2.50;;;4.70;43.40;;;;;;5030655;28;20041;-74
2023/02/27 00:43:50;;;;;;;5.72;3.03;;;4.70;42.90;;;;;;5031266;28;20084;-75
2023/02/27 00:46:18;;;;;;;4.18;2.65;;;4.70;42.90;;;;;;5021126;28;20037;-75
2023/02/27 00:48:44;;;;;;;4.00;2.58;;;4.70;43.00;;;;;;5022038;28;20371;-75
2023/02/27 00:51:10;;;;;;;6.05;3.08;;;4.70;43.00;;;;;;5022744;28;20439;-75
2023/02/27 00:53:36;;;;;;;3.05;2.60;;;4.70;43.10;;;;;;5022681;28;20041;-74
2023/02/27 00:56:02;;;;;;;6.05;3.53;;;4.60;43.50;;;;;;5015508;28;20073;-74
2023/02/27 00:58:28;;;;;;;4.35;3.25;;;4.60;42.90;;;;;;5032611;28;20053;-74
2023/02/27 01:00:54;;;;;;;5.00;3.03;;;4.60;43.00;;;;;;5021338;28;20292;-75
2023/02/27 01:03:20;;;;;;;5.97;2.95;;;4.60;43.00;;;;;;5022431;28;20061;-75
2023/02/27 01:05:46;;;;;;;7.03;3.45;;;4.70;43.20;;;;;;5023036;28;20064;-75
2023/02/27 01:08:11;;;;;;;3.70;2.70;;;4.60;43.10;;;;;;5022126;28;20037;-75
2023/02/27 01:10:37;;;;;;;4.30;2.65;;;4.60;43.10;;;;;;5020656;28;20033;-76
2023/02/27 01:13:05;;;;;;;6.57;2.95;;;4.60;43.10;;;;;;5020428;28;20459;-76
2023/02/27 01:15:33;;;;;;;5.47;2.78;;;4.60;43.10;;;;;;5023247;28;20090;-76
2023/02/27 01:17:58;;;;;;;7.03;3.10;;;4.60;43.20;;;;;;5038163;28;20033;-76
2023/02/27 01:20:24;;;;;;;3.67;2.50;;;4.60;43.20;;;;;;5026972;28;20530;-76
2023/02/27 01:22:50;;;;;;;5.40;2.85;;;4.60;43.20;;;;;;5018266;28;20061;-76
2023/02/27 01:25:16;;;;;;;6.57;2.80;;;4.60;43.30;;;;;;5037718;28;20049;-74
2023/02/27 01:27:42;;;;;;;4.43;3.00;;;4.60;43.30;;;;;;5021762;28;20053;-75
2023/02/27 01:30:10;;;;;;;5.15;2.75;;;4.60;43.30;;;;;;5014595;28;20043;-76
2023/02/27 01:32:37;;;;;;;3.90;2.70;;;4.60;43.90;;;;;;5022118;28;20068;-75
2023/02/27 01:35:03;;;;;;;9.32;3.50;;;4.60;43.40;;;;;;5021145;28;20075;-76
2023/02/27 01:37:29;;;;;;;6.28;2.65;;;4.60;43.50;;;;;;5021635;28;20284;-75
2023/02/27 01:39:55;;;;;;;6.32;3.05;;;4.60;43.50;;;;;;5019280;28;20999;-75
2023/02/27 01:42:26;;;;;;;4.70;2.60;;;4.50;43.30;;;;;;5014365;28;20476;-75
2023/02/27 01:45:27;;;;;;;5.95;2.78;;;4.60;43.50;;;;;;5018999;28;20137;-76
2023/02/27 01:48:09;;;;;;;5.45;3.33;;;4.50;43.40;;;;;;5019765;28;20045;-75
2023/02/27 01:50:40;;;;;;;5.65;2.80;;;4.50;43.40;;;;;;5030979;28;20038;-75
2023/02/27 01:53:07;;;;;;;5.55;3.03;;;4.50;43.40;;;;;;5017190;28;20497;-75
2023/02/27 01:55:36;;;;;;;4.68;3.08;;;4.50;43.50;;;;;;5016790;28;20176;-75
2023/02/27 01:58:06;;;;;;;4.95;2.97;;;4.50;43.50;;;;;;5001773;28;20042;-76
2023/02/27 02:00:32;;;;;;;5.10;2.88;;;4.50;43.60;;;;;;5025991;28;20037;-76
2023/02/27 02:03:14;;;;;;;7.55;3.95;;;4.50;43.60;;;;;;5032880;28;20268;-75
2023/02/27 02:05:41;;;;;;;6.22;3.25;;;4.50;43.70;;;;;;5026098;28;20042;-77
2023/02/27 02:08:08;;;;;;;4.05;2.83;;;4.50;43.60;;;;;;5025592;28;20135;-77
2023/02/27 02:10:35;;;;;;;6.03;3.40;;;4.50;43.70;;;;;;5023127;28;20044;-77
2023/02/27 02:13:02;;;;;;;6.05;3.28;;;4.50;43.70;;;;;;5024578;28;20033;-77
2023/02/27 02:15:35;;;;;;;7.00;3.03;;;4.50;43.70;;;;;;5024367;28;20040;-77
2023/02/27 02:18:18;;;;;;;4.35;2.83;;;4.50;43.80;;;;;;5040373;28;20047;-77
2023/02/27 02:21:20;;;;;;;5.18;3.22;;;4.50;43.80;;;;;;5022065;28;20029;-77
2023/02/27 02:24:14;;;;;;;6.72;3.33;;;4.50;43.80;;;;;;5019646;28;20041;-78
2023/02/27 02:26:56;;;;;;;4.53;3.20;;;4.50;43.80;;;;;;5007006;28;20111;-76
2023/02/27 02:29:58;;;;;;;5.20;3.33;;;4.40;43.70;;;;;;5022776;28;20060;-76
2023/02/27 02:32:46;;;;;;;7.78;3.45;;;4.40;43.70;;;;;;5017351;28;20033;-76
2023/02/27 02:35:33;;;;;;;8.90;3.97;;;4.40;44.30;;;;;;5024082;28;20048;-76
2023/02/27 02:38:11;;;;;;;10.73;4.28;;;4.40;43.80;;;;;;5036185;28;20029;-75
2023/02/27 02:41:16;;;;;;;7.38;4.20;;;4.40;43.80;;;;;;5037180;28;20037;-74
2023/02/27 02:43:57;;;;;;;4.82;3.58;;;4.30;43.70;;;;;;5021927;28;20199;-75
2023/02/27 02:46:48;;;;;;;5.07;3.38;;;4.30;43.70;;;;;;5026879;28;20046;-75
2023/02/27 02:49:29;;;;;;;5.50;3.42;;;4.30;43.80;;;;;;5029517;28;20146;-77
2023/02/27 02:52:11;;;;;;;5.65;3.92;;;4.30;43.80;;;;;;5028422;28;20029;-77
2023/02/27 02:54:43;;;;;;;7.10;4.18;;;4.30;43.90;;;;;;5027931;28;20033;-78
2023/02/27 02:57:44;;;;;;;4.88;3.60;;;4.30;43.90;;;;;;5042350;28;20423;-78
2023/02/27 03:00:21;;;;;;;6.60;4.15;;;4.30;44.00;;;;;;5019233;28;20072;-78
2023/02/27 03:02:55;;;;;;;6.50;4.13;;;4.20;43.80;;;;;;5022061;28;20120;-78
2023/02/27 03:05:46;;;;;;;5.95;4.10;;;4.30;44.00;;;;;;5044590;28;20456;-77
2023/02/27 03:08:21;;;;;;;6.78;3.92;;;4.20;43.90;;;;;;5027431;28;20112;-78
2023/02/27 03:10:59;;;;;;;6.25;3.97;;;4.20;43.90;;;;;;5027875;28;20037;-78
2023/02/27 03:13:47;;;;;;;7.38;3.88;;;4.20;44.00;;;;;;5022758;28;20697;-79
2023/02/27 03:16:19;;;;;;;8.15;4.63;;;4.20;44.10;;;;;;5027667;28;20176;-78
2023/02/27 03:19:01;;;;;;;7.75;4.35;;;4.20;44.10;;;;;;5021341;28;20030;-77
2023/02/27 03:21:35;;;;;;;6.63;3.92;;;4.20;44.10;;;;;;5028981;28;20045;-79
2023/02/27 03:24:06;;;;;;;5.20;4.18;;;4.20;44.20;;;;;;5026673;28;20045;-78
2023/02/27 03:26:41;;;;;;;5.73;3.40;;;4.10;44.00;;;;;;5023968;28;20033;-83
2023/02/27 03:29:09;;;;;;;;;;;4.10;44.10;;;;;;5020712;28;20052;-77
2023/02/27 03:31:45;;;;;;;9.38;3.90;;;4.10;44.70;;;;;;5027353;28;19915;-77
2023/02/27 03:34:26;;;;;;;6.53;3.72;;;4.10;44.10;;;;;;5026764;28;20057;-78
2023/02/27 03:37:06;;;;;;;8.40;4.03;;;4.10;44.10;;;;;;5041582;28;20042;-78
2023/02/27 03:39:56;;;;;;;8.40;4.30;;;4.10;44.20;;;;;;5043705;28;20060;-78
2023/02/27 03:42:30;;;;;;;5.72;3.88;;;4.00;44.10;;;;;;5020533;28;20038;-78
2023/02/27 03:45:27;;;;;;;6.70;3.75;;;4.00;44.10;;;;;;5026085;28;20049;-78
2023/02/27 03:47:54;;;;;;;6.35;4.20;;;4.00;44.20;;;;;;5041090;28;20049;-79
2023/02/27 03:50:20;;;;;;;7.45;4.25;;;4.00;44.20;;;;;;5026638;28;20695;-79
2023/02/27 03:52:47;;;;;;;7.28;4.13;;;4.00;44.30;;;;;;5026034;28;20037;-79
2023/02/27 03:55:25;;;;;;;7.13;3.60;;;4.00;44.40;;;;;;5043587;28;20120;-79
2023/02/27 03:57:52;;;;;;;7.00;3.90;;;4.00;44.40;;;;;;5039909;28;20041;-79
2023/02/27 04:00:23;;;;;;;6.70;3.97;;;4.00;44.40;;;;;;5023873;28;20041;-79
2023/02/27 04:02:52;;;;;;;6.50;4.00;;;3.90;44.30;;;;;;5027797;28;20091;-79
2023/02/27 04:05:22;;;;;;;6.18;3.70;;;4.00;44.60;;;;;;5027072;28;20116;-79
2023/02/27 04:08:31;;;;;;;5.57;3.95;;;4.00;44.60;;;;;;5026454;28;20053;-79
2023/02/27 04:11:29;;;;;;;8.45;4.10;;;3.90;44.50;;;;;;5026904;28;20048;-79
2023/02/27 04:14:13;;;;;;;7.38;3.45;;;4.00;44.60;;;;;;5026753;28;20096;-79
2023/02/27 04:16:59;;;;;;;8.68;3.72;;;3.90;44.50;;;;;;5026198;28;20469;-79
2023/02/27 04:19:41;;;;;;;10.27;4.20;;;4.00;44.80;;;;;;5036333;28;20026;-79
2023/02/27 04:22:31;;;;;;;8.85;4.30;;;3.90;44.60;;;;;;5027660;28;20037;-80
2023/02/27 04:25:25;;;;;;;6.78;3.88;;;3.90;44.60;;;;;;5025943;28;20076;-79
2023/02/27 04:28:24;;;;;;;8.90;4.35;;;3.90;44.60;;;;;;5027220;28;20109;-79
2023/02/27 04:31:29;;;;;;;6.95;4.35;;;4.00;44.90;;;;;;5024907;28;20037;-78
2023/02/27 04:34:17;;;;;;;7.97;4.25;;;3.90;44.60;;;;;;5028210;28;20025;-78
2023/02/27 04:36:54;;;;;;;5.63;3.92;;;4.00;44.80;;;;;;5027571;28;20029;-78
2023/02/27 04:39:33;;;;;;;5.13;3.90;;;4.00;44.80;;;;;;5035830;28;20026;-79
2023/02/27 04:42:20;;;;;;;9.88;4.22;;;4.00;44.90;;;;;;5028371;28;20076;-78
2023/02/27 04:44:49;;;;;;;7.45;4.00;;;4.00;44.80;;;;;;5026793;28;20049;-79
2023/02/27 04:47:17;;;;;;;7.95;4.45;;;4.00;44.80;;;;;;5022146;28;20129;-78
2023/02/27 04:49:53;;;;;;;8.00;4.55;;;4.00;44.90;;;;;;5027264;28;20564;-78
2023/02/27 04:52:45;;;;;;;6.32;4.78;;;4.00;44.90;;;;;;5026506;28;20052;-78
2023/02/27 04:55:20;;;;;;;6.82;5.10;;;4.10;45.20;;;;;;5026455;28;20037;-78
2023/02/27 04:58:09;;;;;;;9.85;4.43;;;4.10;45.10;;;;;;5020281;28;20041;-78
2023/02/27 05:00:39;;;;;;;10.40;4.45;;;4.10;45.10;;;;;;5035075;28;20037;-78
2023/02/27 05:03:12;;;;;;;7.20;5.00;;;4.10;45.10;;;;;;5027308;28;20044;-80
2023/02/27 05:05:40;;;;;;;8.65;4.18;;;4.10;45.10;;;;;;5019137;28;20041;-79
2023/02/27 05:08:15;;;;;;;7.25;4.20;;;4.10;45.20;;;;;;5026659;28;20033;-79
2023/02/27 05:10:59;;;;;;;6.47;4.20;;;4.10;45.20;;;;;;5026431;28;20179;-79
2023/02/27 05:13:31;;;;;;;6.90;4.40;;;4.10;45.30;;;;;;5039490;28;20724;-78
2023/02/27 05:16:28;;;;;;;10.73;5.25;;;4.10;45.30;;;;;;5026754;28;20120;-79
2023/02/27 05:18:55;;;;;;;8.50;4.53;;;4.10;45.40;;;;;;5026439;28;20057;-79
2023/02/27 05:21:35;;;;;;;8.02;4.38;;;4.10;45.40;;;;;;5025515;28;20048;-79
2023/02/27 05:24:16;;;;;;;6.80;3.95;;;4.10;45.50;;;;;;5026235;28;20515;-80
2023/02/27 05:27:17;;;;;;;11.35;5.07;;;4.10;46.10;;;;;;5020807;28;20862;-78
2023/02/27 05:29:48;;;;;;;10.20;4.93;;;4.10;45.50;;;;;;5023085;28;20033;-78
2023/02/27 05:32:32;;;;;;;9.93;4.80;;;4.20;45.70;;;;;;5023196;28;20033;-79
2023/02/27 05:35:25;;;;;;;9.82;5.05;;;4.20;45.70;;;;;;5026773;28;20036;-78
2023/02/27 05:38:04;;;;;;;9.05;5.40;;;4.20;45.80;;;;;;5025592;28;20042;-79
2023/02/27 05:40:35;;;;;;;12.20;4.93;;;4.30;46.50;;;;;;5026219;28;20029;-78
2023/02/27 05:43:08;;;;;;;9.55;4.68;;;4.30;45.90;;;;;;5023260;28;20102;-78
2023/02/27 05:45:37;;;;;;;7.25;4.72;;;4.30;46.00;;;;;;5025035;28;20041;-78
2023/02/27 05:48:11;;;;;;;8.55;5.22;;;4.30;46.00;;;;;;5017733;28;20144;-78
2023/02/27 05:50:39;;;;;;;7.55;5.00;;;4.30;46.00;;;;;;5020733;28;20029;-78
2023/02/27 05:53:10;;;;;;;10.20;5.03;;;4.40;46.20;;;;;;5019072;28;20499;-78
2023/02/27 05:55:55;;;;;;;8.20;5.60;;;4.40;46.20;;;;;;5022012;28;20037;-79
2023/02/27 05:58:39;;;;;;;9.82;5.13;;;4.40;46.30;;;;;;5030991;28;20076;-79
2023/02/27 06:01:08;;;;;;;11.35;6.15;;;4.50;46.50;;;;;;5037743;28;20658;-78
2023/02/27 06:03:35;;;;;;;7.22;5.47;;;4.50;46.50;;;;;;5016956;28;20045;-78
2023/02/27 06:06:05;;;;;;;6.50;4.68;;;4.50;46.40;;;;;;5017836;28;20041;-77
2023/02/27 06:08:31;;;;;;;7.90;4.88;;;4.50;46.40;;;;;;5021339;28;20029;-78
2023/02/27 06:10:57;;;;;;;16.92;5.57;;;4.60;46.60;;;;;;5021398;28;20037;-78
2023/02/27 06:13:25;;;;;;;7.40;5.25;;;4.60;46.70;;;;;;5019947;28;20048;-77
2023/02/27 06:15:51;;;;;;;5.90;5.13;;;4.60;46.70;;;;;;5021626;28;20115;-78
2023/02/27 06:18:18;;;;;;;7.03;5.13;;;4.60;46.70;;;;;;5021673;28;20038;-78
2023/02/27 06:20:44;;;;;;;8.80;5.32;;;4.60;46.70;;;;;;5020015;28;20025;-78
2023/02/27 06:23:11;;;;;;;8.90;4.75;;;4.70;47.00;;;;;;5018859;28;20048;-78
2023/02/27 06:25:37;;;;;;;8.68;5.05;;;4.70;47.00;;;;;;5021219;28;20048;-78
2023/02/27 06:28:04;;;;;;;9.63;5.50;;;4.70;47.00;;;;;;5018374;28;20046;-78
2023/02/27 06:30:31;;;;;;;9.02;6.45;;;4.70;47.00;;;;;;5021628;28;20390;-78
2023/02/27 06:32:57;;;;;;;9.43;5.55;;;4.80;47.20;;;;;;5015439;28;20136;-79
2023/02/27 06:35:23;;;;;;;8.45;5.65;;;4.80;47.20;;;;;;5020164;28;20112;-76
2023/02/27 06:37:49;;;;;;;10.02;5.80;;;4.80;47.20;;;;;;5036028;28;20167;-78
2023/02/27 06:40:15;;;;;;;8.65;5.22;;;4.80;47.30;;;;;;5021446;28;20108;-78
2023/02/27 06:42:42;;;;;;;8.55;5.78;;;4.80;47.30;;;;;;5021679;28;20675;-78
2023/02/27 06:45:13;;;;;;;9.80;5.75;;;4.80;47.30;;;;;;5014473;28;20432;-78
2023/02/27 06:47:40;;;;;;;8.18;5.32;;;4.90;47.50;;;;;;5016557;28;20057;-77
2023/02/27 06:50:10;;;;;;;8.38;5.18;;;4.90;47.50;;;;;;5038158;28;20041;-78
2023/02/27 06:52:37;;;;;;;8.52;5.80;;;4.90;47.60;;;;;;5021956;28;20029;-80
2023/02/27 06:55:04;;;;;;;7.53;5.65;;;4.90;47.60;;;;;;5022467;28;20056;-78
2023/02/27 06:57:30;;;;;;;9.45;5.60;;;5.00;47.80;;;;;;5022994;28;20507;-82
2023/02/27 06:59:56;;;;;;;11.85;5.40;;;5.00;47.80;;;;;;5015438;28;20500;-78
2023/02/27 07:02:24;;;;;;;9.70;5.45;;;5.00;48.10;;;;;;5024724;28;20050;-79
2023/02/27 07:04:50;;;;;;;9.25;5.22;;;5.10;49.50;;;;;;5015786;28;20041;-80
2023/02/27 07:07:17;;;;;;;12.57;6.05;;;5.30;49.60;;;;;;5023706;28;20156;-80
2023/02/27 07:09:43;;;;;;;9.40;5.38;;;5.40;49.90;;;;;;5021427;28;20040;-79
2023/02/27 07:12:09;;;;;;;13.52;5.90;;;5.50;50.20;;;;;;5037840;28;20037;-78
2023/02/27 07:14:35;;;;;;;7.88;5.53;;;5.60;50.30;;;;;;5020748;28;20026;-77
2023/02/27 07:17:03;;;;;;;13.40;5.32;;;5.60;50.40;;;;;;5023288;28;20393;-77
2023/02/27 07:19:31;;;;;;;9.02;5.53;;;5.60;50.40;;;;;;5022508;28;21343;-79
2023/02/27 07:21:57;;;;;;;10.35;6.22;;;5.60;50.40;;;;;;5037087;28;20081;-77
2023/02/27 07:24:23;;;;;;;7.20;6.00;;;5.60;50.40;;;;;;5020179;28;20071;-76
2023/02/27 07:26:48;;;;;;;10.93;6.03;;;5.60;50.50;;;;;;5021792;28;20489;-77
2023/02/27 07:29:14;;;;;;;9.70;6.70;;;5.60;50.50;;;;;;5020074;28;20029;-76
2023/02/27 07:31:40;;;;;;;8.63;6.25;;;5.70;50.70;;;;;;5026246;28;20473;-82
2023/02/27 07:34:08;;;;;;;7.00;6.05;;;5.60;50.60;;;;;;5034021;28;20397;-76
2023/02/27 07:36:34;;;;;;;7.85;5.93;;;5.60;50.70;;;;;;5021177;28;20038;-80
2023/02/27 07:39:02;;;;;;;9.35;6.72;;;5.70;50.90;;;;;;5019509;28;20041;-77
2023/02/27 07:41:28;;;;;;;7.88;6.32;;;5.70;50.80;;;;;;5018676;28;20120;-77
2023/02/27 07:43:54;;;;;;;9.07;7.22;;;5.70;50.80;;;;;;5020632;28;20433;-77
2023/02/27 07:46:22;;;;;;;8.95;6.82;;;5.80;50.90;;;;;;5010789;28;20091;-77
2023/02/27 07:48:48;;;;;;;8.23;6.55;;;5.80;51.50;;;;;;5028351;28;20029;-77
2023/02/27 07:51:14;;;;;;;9.60;7.20;;;5.80;50.90;;;;;;5021720;28;20060;-78
2023/02/27 07:53:40;;;;;;;10.55;7.22;;;5.80;50.90;;;;;;5019821;28;20651;-75
2023/02/27 07:56:06;;;;;;;9.98;7.50;;;5.80;50.90;;;;;;5022137;28;20033;-75
2023/02/27 07:58:32;;;;;;;12.02;7.45;;;5.80;50.90;;;;;;5018425;28;20033;-75
2023/02/27 08:00:58;;;;;;;9.45;7.22;;;5.90;51.10;;;;;;5011325;28;20033;-75
2023/02/27 08:03:24;;;;;;;8.52;6.40;;;5.90;51.10;;;;;;5021618;28;20059;-76
2023/02/27 08:05:50;;;;;;;11.35;7.70;;;5.90;51.00;;;;;;5019470;28;20163;-75
2023/02/27 08:08:16;;;;;;;10.05;7.13;;;6.00;51.20;;;;;;5021363;28;20502;-76
2023/02/27 08:10:41;;;;;;;11.40;7.72;;;6.10;51.30;;;;;;5016315;28;20032;-76
2023/02/27 08:13:08;;;;;;;10.80;7.82;;;6.10;51.30;;;;;;5018764;28;20034;-74
2023/02/27 08:15:34;;;;;;;11.60;9.00;;;6.10;51.30;;;;;;5019118;28;20048;-78
2023/02/27 08:18:00;;;;;;;11.70;8.25;;;6.20;51.40;;;;;;5020905;28;20440;-77
2023/02/27 08:20:26;;;;;;;10.07;8.32;;;6.30;51.40;;;;;;5012712;28;20143;-77
2023/02/27 08:22:52;;;;;;;10.13;8.45;;;6.40;51.50;;;;;;5021443;28;20108;-76
2023/02/27 08:25:19;;;;;;;10.43;7.88;;;6.40;51.40;;;;;;5035372;28;20055;-75
2023/02/27 08:27:45;;;;;;;8.75;7.85;;;6.40;51.40;;;;;;5009903;28;20034;-75
2023/02/27 08:30:11;;;;;;;11.75;8.80;;;6.50;51.50;;;;;;5010218;28;20045;-75
2023/02/27 08:32:38;;;;;;;9.40;7.03;;;6.60;51.70;;;;;;5015588;28;20040;-75
2023/02/27 08:35:04;;;;;;;10.07;8.45;;;6.60;51.70;;;;;;5026700;28;20034;-75
2023/02/27 08:37:30;;;;;;;10.85;8.27;;;6.70;51.80;;;;;;5016289;28;20030;-73
2023/02/27 08:39:56;;;;;;;10.35;9.00;;;6.80;52.00;;;;;;5019908;28;20518;-74
2023/02/27 08:42:22;;;;;;;8.98;8.10;;;6.80;51.90;;;;;;5021370;28;20048;-74
2023/02/27 08:44:49;;;;;;;9.20;8.18;;;6.90;52.00;;;;;;5019520;28;20551;-75
2023/02/27 08:47:16;;;;;;;10.35;8.10;;;7.00;52.00;;;;;;5021646;28;20057;-74
2023/02/27 08:49:42;;;;;;;12.60;8.57;;;7.10;52.10;;;;;;5020230;28;20121;-75
2023/02/27 08:52:08;;;;;;;9.40;8.32;;;7.20;52.10;;;;;;5021456;28;20171;-75
2023/02/27 08:54:36;;;;;;;10.95;8.40;;;7.30;52.20;;;;;;5021180;28;20034;-76
2023/02/27 08:57:02;;;;;;;10.48;8.73;;;7.30;52.10;;;;;;5016974;28;20523;-75
2023/02/27 08:59:29;;;;;;;9.35;7.90;;;7.40;52.10;;;;;;5014902;28;20111;-75
2023/02/27 09:01:55;;;;;;;15.18;9.48;;;7.50;52.20;;;;;;5020662;28;20052;-75
2023/02/27 09:04:21;;;;;;;8.85;7.88;;;7.70;52.40;;;;;;5018236;28;20045;-76
2023/02/27 09:06:47;;;;;;;9.02;7.65;;;7.70;52.30;;;;;;5020083;28;20038;-75
2023/02/27 09:09:13;;;;;;;11.18;8.93;;;7.80;52.30;;;;;;5026467;28;20065;-76
2023/02/27 09:11:39;;;;;;;11.27;8.15;;;7.80;52.20;;;;;;5013789;28;20025;-76
2023/02/27 09:14:06;;;;;;;9.52;7.65;;;7.90;52.40;;;;;;5018635;28;20488;-75
2023/02/27 09:16:31;;;;;;;10.35;8.95;;;8.00;52.50;;;;;;5019772;28;20055;-74
2023/02/27 09:18:58;;;;;;;8.95;7.18;;;8.10;52.50;;;;;;5015841;28;20481;-75
2023/02/27 09:21:24;;;;;;;11.52;7.88;;;8.20;52.50;;;;;;5020207;28;20029;-75
2023/02/27 09:23:52;;;;;;;10.75;8.70;;;8.30;52.60;;;;;;5018887;28;20488;-75
2023/02/27 09:26:18;;;;;;;9.45;8.20;;;8.40;52.60;;;;;;5020150;28;20055;-75
2023/02/27 09:28:44;;;;;;;10.60;8.18;;;8.40;52.50;;;;;;5015008;28;20026;-74
2023/02/27 09:31:11;;;;;;;11.15;8.90;;;8.50;52.60;;;;;;5020090;28;20515;-76
2023/02/27 09:33:37;;;;;;;8.65;7.85;;;8.60;52.60;;;;;;5014081;28;20337;-76
2023/02/27 09:36:06;;;;;;;12.50;9.02;;;8.70;52.60;;;;;;5017608;28;20071;-76
2023/02/27 09:38:33;;;;;;;8.40;7.50;;;8.80;52.60;;;;;;5018009;28;20045;-75
2023/02/27 09:41:00;;;;;;;8.77;7.85;;;9.00;52.80;;;;;;5031024;28;20041;-74
2023/02/27 09:43:42;;;;;;;8.63;7.45;;;9.00;52.60;;;;;;5013821;28;21009;-76
2023/02/27 09:46:14;;;;;;;8.93;7.30;;;9.10;52.60;;;;;;5029734;28;20046;-75
2023/02/27 09:48:59;;;;;;;10.20;8.27;;;9.20;52.60;;;;;;5004052;28;20038;-75
2023/02/27 09:51:26;;;;;;;9.00;7.90;;;9.30;52.70;;;;;;5018647;28;20029;-76
2023/02/27 09:53:57;;;;;;;8.35;7.63;;;9.30;52.60;;;;;;5016461;28;20048;-76
2023/02/27 09:56:55;;;;;;;10.40;7.60;;;9.40;52.70;;;;;;5008110;28;20914;-75
2023/02/27 09:59:46;;;;;;;9.20;7.95;;;9.50;52.80;;;;;;5015395;28;20045;-76
2023/02/27 10:02:39;;;;;;;8.65;7.82;;;9.70;53.00;;;;;;5015551;28;20511;-76
2023/02/27 10:05:07;;;;;;;9.02;8.13;;;9.70;52.70;;;;;;5015642;28;20425;-75
2023/02/27 10:07:56;;;;;;;8.25;7.47;;;9.80;52.70;;;;;;5012987;28;20344;-76
2023/02/27 10:10:35;;;;;;;8.82;7.72;;;9.90;52.80;;;;;;5028362;28;20084;-76
2023/02/27 10:13:04;;;;;;;7.57;6.88;;;9.90;52.80;;;;;;5024660;28;20030;-76
2023/02/27 10:15:36;;;;;;;10.00;7.47;;;9.90;52.80;;;;;;5015461;28;20041;-78
2023/02/27 10:18:15;;;;;;;8.57;7.60;;;10.00;53.00;;;;;;5015848;28;20060;-75
2023/02/27 10:20:56;;;;;;;12.52;8.63;;;10.00;53.00;;;;;;5004817;28;20600;-76
2023/02/27 10:23:29;;;;;;;8.63;7.72;;;10.00;53.00;;;;;;5009500;28;20041;-76
2023/02/27 10:25:55;;;;;;;7.78;7.05;;;10.00;53.00;;;;;;5035054;28;20041;-76
2023/02/27 10:28:22;;;;;;;11.40;8.15;;;10.00;53.00;;;;;;5033616;28;20057;-74
2023/02/27 10:30:52;;;;;;;8.35;7.53;;;10.10;53.10;;;;;;5016893;28;20202;-75
2023/02/27 10:33:31;;;;;;;7.63;6.93;;;10.20;53.10;;;;;;5011368;28;20030;-74
2023/02/27 10:35:57;;;;;;;7.40;6.70;;;10.30;53.10;;;;;;5017232;28;20037;-74
2023/02/27 10:38:29;;;;;;;7.55;6.85;;;10.30;53.00;;;;;;5009732;28;20103;-74
2023/02/27 10:40:56;;;;;;;9.65;7.95;;;10.30;52.90;;;;;;5013012;28;20092;-74
2023/02/27 10:43:22;;;;;;;9.75;7.85;;;10.20;52.80;;;;;;5010798;28;20047;-75
2023/02/27 10:45:48;;;;;;;7.60;6.80;;;10.20;52.80;;;;;;5014494;28;20033;-74
2023/02/27 10:48:15;;;;;;;8.65;7.85;;;10.20;52.80;;;;;;5014305;28;20451;-74
2023/02/27 10:50:45;;;;;;;9.50;7.97;;;10.30;52.90;;;;;;5022418;28;20475;-75
2023/02/27 10:53:37;;;;;;;8.57;7.20;;;10.40;53.00;;;;;;5012255;28;20034;-75
2023/02/27 10:56:13;;;;;;;7.65;6.93;;;10.50;53.50;;;;;;5021612;28;20041;-75
2023/02/27 10:58:39;;;;;;;8.07;7.30;;;10.60;53.00;;;;;;5020187;28;20067;-74
2023/02/27 11:01:07;;;;;;;10.48;8.13;;;10.70;52.80;;;;;;5021101;28;20056;-75
2023/02/27 11:03:42;;;;;;;8.65;6.97;;;10.80;53.40;;;;;;5023107;28;20032;-75
2023/02/27 11:06:12;;;;;;;10.35;8.07;;;10.90;52.70;;;;;;5024223;28;20033;-76
2023/02/27 11:08:38;;;;;;;10.90;7.65;;;11.10;52.80;;;;;;5031781;28;20041;-76
2023/02/27 11:11:06;;;;;;;8.38;7.47;;;11.20;52.60;;;;;;5022263;28;20497;-76
2023/02/27 11:13:38;;;;;;;8.18;7.38;;;11.30;52.50;;;;;;5016059;28;20512;-75
2023/02/27 11:16:20;;;;;;;7.63;6.83;;;11.40;52.50;;;;;;5021993;28;20033;-75
2023/02/27 11:18:48;;;;;;;6.88;6.13;;;11.40;52.30;;;;;;5035110;28;20369;-75
2023/02/27 11:21:30;;;;;;;7.63;6.68;;;11.50;52.50;;;;;;5017911;28;20037;-75
2023/02/27 11:24:02;;;;;;;7.85;7.15;;;11.50;52.40;;;;;;5013679;28;20046;-75
2023/02/27 11:26:39;;;;;;;7.03;6.43;;;11.40;52.30;;;;;;5021463;28;20025;-76
2023/02/27 11:29:17;;;;;;;7.43;6.72;;;11.40;52.30;;;;;;5013124;28;20555;-74
2023/02/27 11:31:55;;;;;;;7.78;6.63;;;11.50;52.40;;;;;;5022867;28;20497;-74
2023/02/27 11:34:29;;;;;;;7.50;6.68;;;11.40;52.30;;;;;;5010444;28;20120;-76
2023/02/27 11:37:02;;;;;;;7.07;6.38;;;11.40;52.20;;;;;;5021826;28;20030;-76
2023/02/27 11:39:39;;;;;;;;;;;11.50;52.40;;;;;;5023737;28;20090;-79
2023/02/27 11:42:27;;;;;;;6.47;5.60;;;11.50;52.50;;;;;;5014212;28;20379;-77
2023/02/27 11:45:00;;;;;;;8.23;6.38;;;11.60;53.20;;;;;;5023164;28;20489;-75
2023/02/27 11:47:35;;;;;;;8.38;6.70;;;11.70;52.60;;;;;;5019971;28;20054;-78
2023/02/27 11:50:13;;;;;;;9.07;6.85;;;11.80;52.50;;;;;;5017545;28;20116;-77
2023/02/27 11:52:59;;;;;;;11.35;6.70;;;12.00;52.60;;;;;;5016158;28;20508;-76
2023/02/27 11:55:28;;;;;;;10.18;6.55;;;12.00;52.40;;;;;;5010657;28;20517;-76
2023/02/27 11:58:05;;;;;;;7.80;6.85;;;12.10;52.50;;;;;;5022104;28;20420;-75
2023/02/27 12:00:38;;;;;;;7.18;6.47;;;12.20;52.50;;;;;;5018957;28;20041;-80
2023/02/27 12:03:54;;;;;;;7.35;5.93;;;12.30;52.40;;;;;;5004563;28;20512;-76
2023/02/27 12:06:27;;;;;;;7.70;6.25;;;12.40;52.20;;;;;;5003833;28;20542;-76
2023/02/27 12:09:02;;;;;;;7.10;5.72;;;12.40;52.20;;;;;;5021123;28;20523;-77
2023/02/27 12:11:43;;;;;;;7.15;5.47;;;12.30;52.00;;;;;;5022011;28;20034;-78
2023/02/27 12:14:28;;;;;;;7.95;6.10;;;12.40;52.10;;;;;;5021577;28;20072;-75
2023/02/27 12:17:05;;;;;;;5.85;5.18;;;12.40;52.10;;;;;;5022590;28;20202;-75
2023/02/27 12:20:00;;;;;;;6.00;5.40;;;12.50;52.00;;;;;;5022273;28;20128;-75
2023/02/27 12:22:32;;;;;;;5.20;4.43;;;12.60;51.80;;;;;;5025241;28;20037;-75
2023/02/27 12:25:14;;;;;;;5.07;4.60;;;12.70;51.80;;;;;;5020394;28;20084;-75
2023/02/27 12:27:53;;;;;;;5.63;5.00;;;12.60;51.50;;;;;;5020908;28;20028;-75
2023/02/27 12:30:26;;;;;;;6.60;5.00;;;12.60;51.40;;;;;;5019416;28;20045;-75
2023/02/27 12:32:52;;;;;;;;;;;12.70;51.50;;;;;;5014882;28;20033;-75
2023/02/27 12:35:30;;;;;;;6.70;5.25;;;12.80;51.70;;;;;;5017983;28;20332;-75
2023/02/27 12:37:57;;;;;;;5.28;4.70;;;12.80;51.50;;;;;;5011038;28;20114;-75
2023/02/27 12:40:49;;;;;;;5.53;4.85;;;12.90;51.50;;;;;;5032944;28;20029;-75
2023/02/27 12:43:22;;;;;;;6.50;5.60;;;12.90;51.20;;;;;;5002181;28;20534;-74
2023/02/27 12:45:53;;;;;;;;;;;13.00;51.20;;;;;;5018279;28;20421;-75
2023/02/27 12:48:19;;;;;;;7.90;5.35;;;13.10;51.30;;;;;;5015085;28;19923;-74
2023/02/27 12:50:52;;;;;;;7.28;4.63;;;13.10;51.20;;;;;;5014600;28;20410;-75
2023/02/27 12:53:30;;;;;;;5.35;4.88;;;13.20;51.10;;;;;;5020992;28;20564;-75
2023/02/27 12:56:18;;;;;;;5.82;4.85;;;13.30;51.20;;;;;;5029080;28;20305;-76
2023/02/27 12:59:25;;;;;;;5.47;4.97;;;13.30;50.70;;;;;;5018317;28;20038;-75
2023/02/27 13:01:58;;;;;;;5.53;5.03;;;13.30;50.60;;;;;;5020892;28;20179;-74
2023/02/27 13:04:27;;;;;;;8.15;4.35;;;13.20;50.70;;;;;;5013717;28;20045;-75
2023/02/27 13:07:31;;;;;;;5.28;4.43;;;13.20;50.80;;;;;;5018273;28;20566;-75
2023/02/27 13:10:02;;;;;;;6.82;4.00;;;13.10;50.50;;;;;;5020715;28;20105;-76
2023/02/27 13:12:49;;;;;;;5.72;4.10;;;13.10;50.70;;;;;;5018077;28;20087;-75
2023/02/27 13:15:28;;;;;;;4.55;4.13;;;13.10;50.60;;;;;;5020373;28;20041;-75
2023/02/27 13:18:16;;;;;;;6.10;4.07;;;13.20;50.70;;;;;;5019773;28;20488;-75
2023/02/27 13:20:49;;;;;;;4.00;3.65;;;13.20;50.50;;;;;;5014887;28;20037;-75
2023/02/27 13:23:27;;;;;;;5.07;3.40;;;13.30;50.50;;;;;;5019011;28;20035;-76
2023/02/27 13:25:55;;;;;;;3.45;3.15;;;13.40;50.50;;;;;;5013561;28;20045;-74